Time;durP1;ratioP1;P1;durP2;ratioP2;P2;SDS_P1;SDS_P2;PMS_P1;PMS_P2;Temp;Humidity;BMP_temperature;BMP_pressure;BME280_temperature;BME280_humidity;BME280_pressure;Samples;Min_cycle;Max_cycle;Signal;HPM_P1;HPM_P2
2022/01/13 00:01:48;;;;;;;243.30;30.95;;;5.10;99.90;;;;;;5058926;28;20111;-66
2022/01/13 00:04:15;;;;;;;255.10;29.52;;;5.10;99.90;;;;;;5063402;28;20036;-66
2022/01/13 00:06:41;;;;;;;284.95;31.05;;;5.10;99.90;;;;;;5065978;28;20319;-66
2022/01/13 00:09:08;;;;;;;353.98;32.03;;;5.10;99.90;;;;;;5065042;28;20044;-66
2022/01/13 00:11:33;;;;;;;300.98;30.27;;;5.10;99.90;;;;;;5063498;28;20094;-66
2022/01/13 00:14:23;;;;;;;251.90;29.50;;;5.10;99.90;;;;;;5067461;28;20043;-66
2022/01/13 00:19:49;;;;;;;266.92;28.77;;;5.10;99.90;;;;;;5064640;28;20063;-65
2022/01/13 00:22:23;;;;;;;261.70;31.35;;;5.10;99.90;;;;;;5064188;28;20115;-65
2022/01/13 00:24:54;;;;;;;318.20;31.92;;;5.10;99.90;;;;;;5064714;28;20040;-65
2022/01/13 00:27:22;;;;;;;306.00;32.50;;;5.10;99.90;;;;;;5064817;28;20052;-66
2022/01/13 00:29:48;;;;;;;279.08;31.13;;;5.10;99.90;;;;;;5064499;28;20477;-66
2022/01/13 00:32:15;;;;;;;239.95;29.75;;;5.10;99.90;;;;;;5063625;28;20101;-66
2022/01/13 00:34:42;;;;;;;206.50;26.95;;;5.10;99.90;;;;;;5067259;28;20044;-66
2022/01/13 00:37:08;;;;;;;204.02;27.42;;;5.10;99.90;;;;;;5062750;28;20378;-66
2022/01/13 00:39:34;;;;;;;193.63;29.38;;;5.00;99.90;;;;;;5067155;28;20035;-66
2022/01/13 00:42:00;;;;;;;175.80;27.67;;;5.00;99.90;;;;;;5068066;28;20411;-66
2022/01/13 00:44:25;;;;;;;200.07;27.88;;;5.00;99.90;;;;;;5064489;28;20413;-66
2022/01/13 00:47:00;;;;;;;301.20;32.30;;;5.00;99.90;;;;;;5065484;28;20041;-66
2022/01/13 00:49:27;;;;;;;205.10;29.98;;;5.00;99.90;;;;;;5062651;28;20037;-66
2022/01/13 00:51:53;;;;;;;261.45;33.10;;;5.00;99.90;;;;;;5061992;28;20564;-66
2022/01/13 00:54:19;;;;;;;215.18;30.13;;;5.00;99.90;;;;;;5062066;28;20071;-66
2022/01/13 00:56:45;;;;;;;234.48;30.25;;;5.00;99.90;;;;;;5066073;28;20074;-66
2022/01/13 00:59:12;;;;;;;209.57;30.38;;;5.00;99.90;;;;;;5063372;28;20705;-66
2022/01/13 01:01:47;;;;;;;213.82;32.25;;;5.00;99.90;;;;;;5065025;28;20046;-66
2022/01/13 01:04:14;;;;;;;240.55;33.53;;;5.00;99.90;;;;;;5067097;28;20040;-66
2022/01/13 01:06:39;;;;;;;206.82;30.77;;;5.00;99.90;;;;;;5061044;28;20056;-66
2022/01/13 01:09:06;;;;;;;304.88;35.63;;;5.00;99.90;;;;;;5063199;28;20039;-66
2022/01/13 01:11:32;;;;;;;200.82;30.95;;;5.00;99.90;;;;;;5066108;28;20191;-66
2022/01/13 01:14:00;;;;;;;265.52;33.17;;;5.00;99.90;;;;;;5068437;28;20592;-66
2022/01/13 01:16:27;;;;;;;286.52;34.03;;;5.00;99.90;;;;;;5062020;28;20040;-66
2022/01/13 01:19:01;;;;;;;225.30;31.02;;;5.00;99.90;;;;;;5064704;28;20039;-66
2022/01/13 01:29:02;;;;;;;245.73;31.73;;;5.10;99.90;;;;;;5066333;28;20072;-66
2022/01/13 01:31:31;;;;;;;193.02;29.65;;;5.00;99.90;;;;;;5059817;28;20044;-66
2022/01/13 01:34:16;;;;;;;211.63;30.52;;;5.10;99.90;;;;;;5057132;28;20044;-66
2022/01/13 01:36:42;;;;;;;194.57;31.08;;;5.10;99.90;;;;;;5063276;28;20098;-66
2022/01/13 01:39:09;;;;;;;169.70;29.73;;;5.10;99.90;;;;;;5065286;28;20032;-66
2022/01/13 01:41:37;;;;;;;238.07;32.90;;;5.00;99.90;;;;;;5064971;28;20033;-66
2022/01/13 01:44:10;;;;;;;193.55;30.35;;;5.00;99.90;;;;;;5064447;28;20065;-66
2022/01/13 01:46:41;;;;;;;177.50;30.40;;;5.00;99.90;;;;;;5065523;28;20047;-66
2022/01/13 01:49:15;;;;;;;219.02;30.95;;;5.00;99.90;;;;;;5056411;28;20102;-66
2022/01/13 01:51:46;;;;;;;195.07;29.30;;;5.00;99.90;;;;;;5057788;28;20052;-66
2022/01/13 01:54:12;;;;;;;209.77;31.40;;;5.10;99.90;;;;;;5057446;28;20072;-66
2022/01/13 01:56:39;;;;;;;204.25;30.42;;;5.00;99.90;;;;;;5056470;28;20114;-66
2022/01/13 01:59:12;;;;;;;191.55;29.27;;;5.10;99.90;;;;;;5060176;28;20684;-66
2022/01/13 02:01:38;;;;;;;179.30;27.55;;;5.00;99.90;;;;;;5064783;28;20055;-66
2022/01/13 02:04:03;;;;;;;154.63;25.20;;;5.00;99.90;;;;;;5064171;28;20036;-66
2022/01/13 02:06:29;;;;;;;171.82;25.48;;;5.00;99.90;;;;;;5075216;28;20056;-66
2022/01/13 02:08:56;;;;;;;148.98;25.52;;;5.10;99.90;;;;;;5063716;28;20115;-66
2022/01/13 02:11:23;;;;;;;148.80;23.90;;;5.00;99.90;;;;;;5062601;28;20404;-66
2022/01/13 02:13:53;;;;;;;156.25;24.30;;;5.10;99.90;;;;;;5059489;28;20122;-66
2022/01/13 02:19:00;;;;;;;163.55;27.42;;;5.00;99.90;;;;;;5062371;28;20044;-66
2022/01/13 02:21:26;;;;;;;189.52;27.45;;;5.00;99.90;;;;;;5060947;28;20656;-66
2022/01/13 02:23:54;;;;;;;170.10;26.35;;;5.10;99.90;;;;;;5059918;28;20045;-66
2022/01/13 02:26:21;;;;;;;138.60;25.30;;;5.00;99.90;;;;;;5064752;28;20067;-66
2022/01/13 02:28:47;;;;;;;120.93;23.23;;;5.10;99.90;;;;;;5063498;28;20798;-66
2022/01/13 02:31:13;;;;;;;126.97;25.33;;;5.00;99.90;;;;;;5063186;28;20468;-66
2022/01/13 02:33:40;;;;;;;103.78;22.02;;;5.00;99.90;;;;;;5061536;28;20041;-66
2022/01/13 02:36:07;;;;;;;126.13;22.92;;;5.00;99.90;;;;;;5074860;28;20048;-66
2022/01/13 02:38:34;;;;;;;109.53;22.50;;;5.00;99.90;;;;;;5059714;28;20049;-66
2022/01/13 02:41:00;;;;;;;109.70;21.63;;;4.90;99.90;;;;;;5060439;28;20497;-66
2022/01/13 02:43:29;;;;;;;101.95;20.08;;;5.00;99.90;;;;;;5060422;28;20117;-66
2022/01/13 02:48:39;;;;;;;170.25;26.23;;;5.00;99.90;;;;;;5066582;28;20132;-66
2022/01/13 02:51:05;;;;;;;147.93;22.95;;;4.90;99.90;;;;;;5057600;28;20151;-66
2022/01/13 02:53:31;;;;;;;124.80;21.50;;;4.90;99.90;;;;;;5060418;28;20043;-66
2022/01/13 02:56:01;;;;;;;118.18;21.33;;;4.90;99.90;;;;;;5062172;28;20465;-66
2022/01/13 02:58:27;;;;;;;129.45;22.35;;;4.80;99.90;;;;;;5061671;28;20048;-66
2022/01/13 03:00:53;;;;;;;123.93;22.20;;;4.90;99.90;;;;;;5061716;28;20094;-66
2022/01/13 03:03:20;;;;;;;139.55;23.17;;;4.90;99.90;;;;;;5064453;28;20119;-66
2022/01/13 03:05:46;;;;;;;114.05;21.48;;;4.90;99.90;;;;;;5065369;28;20119;-66
2022/01/13 03:08:11;;;;;;;166.77;26.00;;;4.90;99.90;;;;;;5062809;28;20052;-66
2022/01/13 03:10:37;;;;;;;188.57;25.85;;;5.00;99.90;;;;;;5059687;28;20058;-66
2022/01/13 03:13:03;;;;;;;143.80;24.95;;;4.90;99.90;;;;;;5062799;28;20039;-66
2022/01/13 03:15:29;;;;;;;140.52;24.02;;;5.00;99.90;;;;;;5062370;28;20067;-66
2022/01/13 03:17:55;;;;;;;136.73;23.50;;;4.90;99.90;;;;;;5063432;28;20037;-66
2022/01/13 03:20:20;;;;;;;156.48;24.55;;;4.90;99.90;;;;;;5065058;28;20036;-66
2022/01/13 03:22:46;;;;;;;143.35;24.27;;;5.00;99.90;;;;;;5064484;28;20439;-66
2022/01/13 03:25:14;;;;;;;167.95;26.20;;;5.00;99.90;;;;;;5064416;28;20127;-66
2022/01/13 03:27:41;;;;;;;136.05;23.70;;;4.90;99.90;;;;;;5067582;28;20051;-66
2022/01/13 03:30:09;;;;;;;172.02;25.00;;;5.00;99.90;;;;;;5066938;28;20043;-66
2022/01/13 03:32:38;;;;;;;136.13;24.33;;;5.00;99.90;;;;;;5066248;28;20369;-66
2022/01/13 03:35:05;;;;;;;177.02;27.80;;;5.00;99.90;;;;;;5065621;28;20028;-66
2022/01/13 03:37:32;;;;;;;147.15;24.65;;;5.00;99.90;;;;;;5065762;28;20024;-66
2022/01/13 03:39:58;;;;;;;165.88;25.70;;;5.00;99.90;;;;;;5063756;28;20388;-66
2022/01/13 03:42:24;;;;;;;152.57;24.23;;;5.00;99.90;;;;;;5065527;28;20097;-66
2022/01/13 03:44:50;;;;;;;220.20;29.13;;;5.00;99.90;;;;;;5064065;28;20073;-66
2022/01/13 03:47:16;;;;;;;176.93;27.75;;;5.00;99.90;;;;;;5066139;28;20586;-66
2022/01/13 03:49:42;;;;;;;166.98;25.70;;;5.10;99.90;;;;;;5069109;28;20048;-66
2022/01/13 03:52:23;;;;;;;163.05;26.10;;;5.00;99.90;;;;;;5064041;28;20127;-66
2022/01/13 03:55:31;;;;;;;144.98;24.17;;;5.00;99.90;;;;;;5046871;28;20052;-66
2022/01/13 03:58:41;;;;;;;136.38;23.65;;;5.00;99.90;;;;;;5066249;28;20071;-66
2022/01/13 04:01:44;;;;;;;195.90;27.02;;;5.00;99.90;;;;;;5057856;28;20102;-65
2022/01/13 04:04:10;;;;;;;204.95;28.83;;;5.00;99.90;;;;;;5059904;28;20052;-65
2022/01/13 04:06:41;;;;;;;213.63;28.75;;;5.00;99.90;;;;;;5061140;28;20113;-66
2022/01/13 04:09:30;;;;;;;164.85;25.00;;;5.00;99.90;;;;;;5059356;28;20040;-66
2022/01/13 04:11:56;;;;;;;207.50;28.27;;;5.00;99.90;;;;;;5062775;28;20408;-66
2022/01/13 04:14:29;;;;;;;138.93;22.80;;;5.00;99.90;;;;;;5067194;28;20510;-66
2022/01/13 04:16:55;;;;;;;140.02;24.08;;;5.00;99.90;;;;;;5064380;28;20497;-66
2022/01/13 04:19:21;;;;;;;169.52;26.17;;;5.00;99.90;;;;;;5065850;28;20033;-66
2022/01/13 04:21:47;;;;;;;193.98;26.83;;;5.00;99.90;;;;;;5064827;28;20032;-66
2022/01/13 04:24:13;;;;;;;171.10;25.33;;;5.00;99.90;;;;;;5060629;28;20483;-66
2022/01/13 04:26:42;;;;;;;165.93;24.70;;;5.00;99.90;;;;;;5064168;28;20067;-66
2022/01/13 04:31:41;;;;;;;178.85;25.25;;;5.00;99.90;;;;;;5063721;28;20055;-66
2022/01/13 04:34:07;;;;;;;187.65;27.00;;;5.00;99.90;;;;;;5064657;28;20110;-66
2022/01/13 04:36:34;;;;;;;203.00;27.15;;;5.00;99.90;;;;;;5065550;28;20028;-66
2022/01/13 04:39:00;;;;;;;184.68;25.52;;;5.00;99.90;;;;;;5062429;28;20043;-65
2022/01/13 04:41:32;;;;;;;165.27;25.25;;;5.00;99.90;;;;;;5063697;28;20044;-66
2022/01/13 04:43:58;;;;;;;176.38;25.70;;;5.00;99.90;;;;;;5062040;28;20074;-66
2022/01/13 04:46:24;;;;;;;206.57;27.38;;;5.00;99.90;;;;;;5062533;28;20037;-66
2022/01/13 04:48:50;;;;;;;170.77;26.52;;;5.00;99.90;;;;;;5062898;28;20508;-66
2022/01/13 04:51:16;;;;;;;225.40;29.05;;;5.00;99.90;;;;;;5066302;28;20059;-66
2022/01/13 04:53:42;;;;;;;169.30;25.40;;;5.00;99.90;;;;;;5064571;28;20052;-66
2022/01/13 04:56:12;;;;;;;178.07;27.55;;;5.00;99.90;;;;;;5064363;28;20043;-66
2022/01/13 04:58:38;;;;;;;187.55;27.77;;;4.90;99.90;;;;;;5068172;28;20028;-66
2022/01/13 05:01:04;;;;;;;176.65;27.60;;;4.90;99.90;;;;;;5060593;28;20445;-66
2022/01/13 05:03:30;;;;;;;158.35;26.45;;;4.90;99.90;;;;;;5062351;28;20086;-66
2022/01/13 05:05:55;;;;;;;221.70;31.05;;;4.90;99.90;;;;;;5065422;28;20114;-66
2022/01/13 05:08:21;;;;;;;189.50;27.75;;;4.90;99.90;;;;;;5061691;28;20072;-66
2022/01/13 05:10:47;;;;;;;174.93;28.02;;;4.90;99.90;;;;;;5064449;28;20093;-66
2022/01/13 05:13:13;;;;;;;185.40;28.58;;;4.90;99.90;;;;;;5062102;28;20457;-66
2022/01/13 05:15:41;;;;;;;234.77;30.90;;;4.90;99.90;;;;;;5067033;28;20524;-66
2022/01/13 05:21:06;;;;;;;191.15;27.90;;;4.90;99.90;;;;;;5063537;28;20064;-66
2022/01/13 05:23:32;;;;;;;;;;;4.90;99.90;;;;;;5066258;28;20090;-66
2022/01/13 05:25:58;;;;;;;142.07;24.40;;;4.90;99.90;;;;;;5064452;28;19952;-66
2022/01/13 05:28:24;;;;;;;171.27;27.92;;;4.90;99.90;;;;;;5063710;28;20047;-66
2022/01/13 05:30:50;;;;;;;153.32;24.80;;;4.90;99.90;;;;;;5065263;28;20032;-66
2022/01/13 05:33:16;;;;;;;122.95;22.27;;;4.90;99.90;;;;;;5063455;28;20413;-66
2022/01/13 05:35:42;;;;;;;121.47;23.13;;;4.90;99.90;;;;;;5063402;28;20081;-66
2022/01/13 05:38:09;;;;;;;108.25;22.10;;;4.80;99.90;;;;;;5063087;28;20033;-66
2022/01/13 05:40:37;;;;;;;133.00;23.27;;;4.80;99.90;;;;;;5066529;28;20029;-66
2022/01/13 05:43:03;;;;;;;118.07;22.90;;;4.80;99.90;;;;;;5062526;28;20047;-66
2022/01/13 05:45:30;;;;;;;176.45;27.13;;;4.80;99.90;;;;;;5061578;28;20055;-66
2022/01/13 05:47:59;;;;;;;172.90;26.10;;;4.80;99.90;;;;;;5063329;28;20040;-66
2022/01/13 05:50:26;;;;;;;175.95;27.08;;;4.80;99.90;;;;;;5060784;28;20047;-66
2022/01/13 05:52:52;;;;;;;170.07;25.75;;;4.80;99.90;;;;;;5064588;28;20385;-66
2022/01/13 05:55:18;;;;;;;191.88;27.65;;;4.80;99.90;;;;;;5068222;28;20033;-66
2022/01/13 05:57:44;;;;;;;257.50;32.00;;;4.80;99.90;;;;;;5056383;28;20120;-66
2022/01/13 06:00:13;;;;;;;213.73;29.98;;;4.80;99.90;;;;;;5052646;28;20099;-66
2022/01/13 06:02:39;;;;;;;189.98;28.27;;;4.80;99.90;;;;;;5069479;28;20115;-66
2022/01/13 06:05:06;;;;;;;247.30;32.33;;;4.80;99.90;;;;;;5058267;28;20032;-67
2022/01/13 06:07:32;;;;;;;175.00;27.20;;;4.80;99.90;;;;;;5057561;28;20143;-67
2022/01/13 06:09:58;;;;;;;154.02;26.27;;;4.80;99.90;;;;;;5059663;28;20526;-67
2022/01/13 06:12:35;;;;;;;152.38;24.77;;;4.80;99.90;;;;;;5059089;28;20048;-67
2022/01/13 06:15:03;;;;;;;151.63;25.35;;;4.80;99.90;;;;;;5065245;28;20119;-67
2022/01/13 06:17:29;;;;;;;139.80;24.02;;;4.80;99.90;;;;;;5062705;28;20071;-67
2022/01/13 06:19:56;;;;;;;133.45;23.50;;;4.80;99.90;;;;;;5062286;28;20028;-67
2022/01/13 06:22:23;;;;;;;134.80;23.83;;;4.80;99.90;;;;;;5059645;28;20040;-67
2022/01/13 06:24:49;;;;;;;146.65;23.52;;;4.80;99.90;;;;;;5071547;28;20255;-65
2022/01/13 06:27:15;;;;;;;126.40;22.58;;;4.80;99.90;;;;;;5066126;28;20068;-66
2022/01/13 06:29:41;;;;;;;137.40;23.55;;;4.70;99.90;;;;;;5058926;28;20142;-66
2022/01/13 06:32:07;;;;;;;132.90;23.13;;;4.70;99.90;;;;;;5066663;28;20041;-66
2022/01/13 06:34:33;;;;;;;143.13;22.95;;;4.80;99.90;;;;;;5063135;28;20044;-66
2022/01/13 06:36:58;;;;;;;129.43;23.30;;;4.80;99.90;;;;;;5058833;28;20052;-66
2022/01/13 06:39:24;;;;;;;111.43;23.05;;;4.80;99.90;;;;;;5065506;28;20415;-66
2022/01/13 06:41:50;;;;;;;126.80;22.48;;;4.80;99.90;;;;;;5064319;28;20024;-66
2022/01/13 06:44:15;;;;;;;172.90;26.65;;;4.80;99.90;;;;;;5063647;28;20047;-66
2022/01/13 06:46:41;;;;;;;148.50;24.95;;;4.80;99.90;;;;;;5062243;28;20093;-66
2022/01/13 06:49:07;;;;;;;175.25;26.70;;;4.90;99.90;;;;;;5059832;28;20050;-66
2022/01/13 06:51:32;;;;;;;165.40;26.63;;;4.80;99.90;;;;;;5063412;28;20044;-66
2022/01/13 06:53:58;;;;;;;180.15;26.90;;;4.90;99.90;;;;;;5041727;28;20492;-66
2022/01/13 06:56:24;;;;;;;202.13;28.23;;;4.90;99.90;;;;;;5064940;28;20049;-66
2022/01/13 06:58:51;;;;;;;151.93;26.10;;;4.90;99.90;;;;;;5062903;28;20064;-66
2022/01/13 07:01:18;;;;;;;196.05;28.58;;;4.90;99.90;;;;;;5062688;28;20036;-66
2022/01/13 07:03:43;;;;;;;222.02;29.92;;;4.90;99.90;;;;;;5069715;28;20521;-67
2022/01/13 07:06:09;;;;;;;219.50;28.42;;;4.90;99.90;;;;;;5061527;28;20048;-66
2022/01/13 07:08:35;;;;;;;153.20;24.95;;;4.90;99.90;;;;;;5060430;28;20040;-66
2022/01/13 07:11:03;;;;;;;165.45;24.58;;;4.90;99.90;;;;;;5060893;28;20045;-66
2022/01/13 07:13:30;;;;;;;159.80;24.73;;;5.00;99.90;;;;;;5061791;28;20127;-66
2022/01/13 07:15:58;;;;;;;196.98;26.52;;;4.90;99.90;;;;;;5061240;28;20082;-66
2022/01/13 07:18:24;;;;;;;185.48;26.85;;;4.90;99.90;;;;;;5067800;28;20116;-66
2022/01/13 07:20:50;;;;;;;171.80;27.20;;;4.90;99.90;;;;;;5060036;28;20043;-66
2022/01/13 07:23:15;;;;;;;172.27;26.85;;;4.90;99.90;;;;;;5060835;28;20396;-66
2022/01/13 07:25:41;;;;;;;194.68;26.85;;;4.90;99.90;;;;;;5049584;28;20056;-66
2022/01/13 07:28:07;;;;;;;166.90;26.58;;;4.90;99.90;;;;;;5060309;28;20511;-66
2022/01/13 07:30:33;;;;;;;158.05;24.20;;;4.90;99.90;;;;;;5054530;28;20325;-66
2022/01/13 07:32:59;;;;;;;169.00;25.55;;;4.90;99.90;;;;;;5050185;28;20052;-66
2022/01/13 07:35:26;;;;;;;167.43;25.90;;;4.90;99.90;;;;;;5061534;28;20060;-66
2022/01/13 07:37:51;;;;;;;160.30;24.83;;;4.90;99.90;;;;;;5057077;28;20167;-66
2022/01/13 07:40:17;;;;;;;179.52;25.95;;;4.80;99.90;;;;;;5052221;28;20127;-66
2022/01/13 07:42:46;;;;;;;138.68;23.85;;;4.90;99.90;;;;;;5054575;28;20042;-66
2022/01/13 07:45:13;;;;;;;145.82;25.45;;;4.90;99.90;;;;;;5062478;28;20104;-66
2022/01/13 07:47:39;;;;;;;184.98;27.30;;;4.90;99.90;;;;;;5054273;28;20667;-66
2022/01/13 07:50:07;;;;;;;140.20;23.95;;;4.80;99.90;;;;;;5055971;28;20033;-66
2022/01/13 07:52:32;;;;;;;169.48;25.25;;;4.90;99.90;;;;;;5053128;28;20044;-66
2022/01/13 07:54:58;;;;;;;136.15;25.25;;;4.90;99.90;;;;;;5059522;28;20033;-66
2022/01/13 07:57:24;;;;;;;165.20;25.88;;;4.90;99.90;;;;;;5052344;28;20116;-66
2022/01/13 07:59:51;;;;;;;152.45;24.98;;;4.90;99.90;;;;;;5056572;28;20033;-66
2022/01/13 08:02:16;;;;;;;134.32;24.35;;;4.90;99.90;;;;;;5058662;28;20126;-66
2022/01/13 08:04:43;;;;;;;164.90;26.08;;;4.90;99.90;;;;;;5055460;28;20077;-66
2022/01/13 08:07:09;;;;;;;158.75;24.85;;;4.90;99.90;;;;;;5058466;28;20100;-66
2022/01/13 08:09:35;;;;;;;132.32;25.42;;;4.90;99.90;;;;;;5058802;28;20044;-66
2022/01/13 08:12:00;;;;;;;211.95;29.38;;;4.90;99.90;;;;;;5059438;28;20641;-66
2022/01/13 08:14:26;;;;;;;138.38;23.70;;;4.90;99.90;;;;;;5062132;28;20115;-66
2022/01/13 08:16:56;;;;;;;144.35;24.75;;;5.00;99.90;;;;;;5060835;28;20388;-66
2022/01/13 08:22:06;;;;;;;143.88;25.00;;;4.90;99.90;;;;;;5056972;28;20454;-66
2022/01/13 08:24:32;;;;;;;136.45;24.92;;;5.00;99.90;;;;;;5060159;28;20037;-66
2022/01/13 08:26:58;;;;;;;182.93;26.92;;;5.00;99.90;;;;;;5066553;28;20378;-66
2022/01/13 08:29:23;;;;;;;139.68;24.25;;;5.00;99.90;;;;;;5057923;28;20040;-66
2022/01/13 08:31:49;;;;;;;117.70;23.95;;;5.00;99.90;;;;;;5064285;28;20068;-66
2022/01/13 08:34:16;;;;;;;148.05;25.35;;;5.00;99.90;;;;;;5057905;28;20160;-66
2022/01/13 08:36:42;;;;;;;175.15;27.33;;;5.00;99.90;;;;;;5059342;28;20043;-66
2022/01/13 08:39:08;;;;;;;131.73;25.33;;;5.00;99.90;;;;;;5067473;28;20064;-66
2022/01/13 08:41:34;;;;;;;170.68;25.95;;;5.10;99.90;;;;;;5059975;28;20477;-66
2022/01/13 08:44:00;;;;;;;168.45;27.35;;;5.10;99.90;;;;;;5064765;28;20071;-66
2022/01/13 08:46:26;;;;;;;156.68;25.80;;;5.10;99.90;;;;;;5059458;28;20068;-66
2022/01/13 08:48:53;;;;;;;153.20;25.88;;;5.20;99.90;;;;;;5060522;28;20037;-66
2022/01/13 08:51:19;;;;;;;163.57;26.77;;;5.00;99.90;;;;;;5060171;28;20496;-66
2022/01/13 08:53:45;;;;;;;146.05;26.05;;;5.10;99.90;;;;;;5056174;28;20384;-66
2022/01/13 08:56:12;;;;;;;204.20;28.65;;;5.20;99.90;;;;;;5061075;28;20074;-66
2022/01/13 08:58:38;;;;;;;177.73;26.77;;;5.10;99.90;;;;;;5065064;28;20068;-66
2022/01/13 09:01:03;;;;;;;161.25;25.35;;;5.20;99.90;;;;;;5059777;28;20064;-66
2022/01/13 09:03:29;;;;;;;171.50;25.70;;;5.20;99.90;;;;;;5060122;28;20036;-66
2022/01/13 09:05:55;;;;;;;158.20;25.83;;;5.20;99.90;;;;;;5062300;28;20127;-66
2022/01/13 09:08:21;;;;;;;156.15;25.65;;;5.20;99.90;;;;;;5055857;28;20420;-66
2022/01/13 09:10:47;;;;;;;149.13;25.27;;;5.20;99.90;;;;;;5059433;28;20040;-66
2022/01/13 09:13:15;;;;;;;170.18;25.52;;;5.20;99.90;;;;;;5060459;28;20056;-66
2022/01/13 09:15:50;;;;;;;142.82;23.65;;;5.20;99.90;;;;;;5061869;28;20037;-66
2022/01/13 09:18:29;;;;;;;149.93;25.25;;;5.30;99.90;;;;;;5052905;28;20048;-66
2022/01/13 09:20:54;;;;;;;152.05;25.60;;;5.30;99.90;;;;;;5055903;28;20039;-66
2022/01/13 09:23:20;;;;;;;138.02;23.40;;;5.30;99.90;;;;;;5060864;28;20032;-66
2022/01/13 09:25:46;;;;;;;127.68;23.13;;;5.30;99.90;;;;;;5063197;28;20404;-66
2022/01/13 09:28:13;;;;;;;144.15;24.83;;;5.30;99.90;;;;;;5059791;28;20094;-66
2022/01/13 09:30:39;;;;;;;157.70;25.98;;;5.40;99.90;;;;;;5061076;28;20070;-66
2022/01/13 09:33:06;;;;;;;142.93;23.85;;;5.40;99.90;;;;;;5061338;28;20048;-66
2022/01/13 09:35:33;;;;;;;135.45;24.15;;;5.40;99.90;;;;;;5057468;28;20028;-66
2022/01/13 09:38:00;;;;;;;133.45;23.17;;;5.40;99.90;;;;;;5056531;28;20405;-66
2022/01/13 09:40:26;;;;;;;147.27;24.67;;;5.40;99.90;;;;;;5056447;28;20465;-66
2022/01/13 09:42:52;;;;;;;194.15;28.05;;;5.40;99.90;;;;;;5055997;28;20119;-66
2022/01/13 09:45:19;;;;;;;138.57;23.08;;;5.50;99.90;;;;;;5057673;28;20130;-66
2022/01/13 09:47:47;;;;;;;131.02;23.25;;;5.50;99.90;;;;;;5060114;28;20123;-66
2022/01/13 09:50:17;;;;;;;138.70;22.95;;;5.50;99.90;;;;;;5058240;28;20033;-66
2022/01/13 09:52:44;;;;;;;164.45;25.25;;;5.60;99.90;;;;;;5058502;28;20040;-66
2022/01/13 09:55:11;;;;;;;152.73;25.92;;;5.60;99.90;;;;;;5055120;28;20045;-66
2022/01/13 09:57:42;;;;;;;147.00;24.25;;;5.60;99.90;;;;;;5058526;28;20124;-66
2022/01/13 10:00:08;;;;;;;145.35;24.45;;;5.60;99.90;;;;;;5055260;28;20036;-66
2022/01/13 10:02:34;;;;;;;160.35;26.02;;;5.60;99.90;;;;;;5060086;28;20032;-66
2022/01/13 10:05:00;;;;;;;160.55;25.80;;;5.60;99.90;;;;;;5061576;28;20054;-66
2022/01/13 10:07:30;;;;;;;166.35;25.70;;;5.60;99.90;;;;;;5055269;28;20181;-66
2022/01/13 10:09:58;;;;;;;154.05;25.92;;;5.70;99.90;;;;;;5056921;28;20045;-66
2022/01/13 10:12:34;;;;;;;157.30;25.02;;;5.70;99.90;;;;;;5057232;28;20063;-66
2022/01/13 10:17:48;;;;;;;142.05;25.85;;;5.70;99.90;;;;;;5053057;28;20132;-66
2022/01/13 10:20:17;;;;;;;137.40;24.10;;;5.80;99.90;;;;;;5057478;28;20069;-66
2022/01/13 10:22:43;;;;;;;157.98;24.73;;;5.80;99.90;;;;;;5058761;28;20119;-66
2022/01/13 10:25:25;;;;;;;184.60;28.63;;;5.80;99.90;;;;;;5056002;28;20037;-66
2022/01/13 10:27:51;;;;;;;154.65;26.05;;;5.90;99.90;;;;;;5057495;28;20305;-66
2022/01/13 10:30:18;;;;;;;143.38;25.50;;;5.90;99.90;;;;;;5062688;28;20044;-66
2022/01/13 10:32:45;;;;;;;136.20;23.70;;;5.90;99.90;;;;;;5056507;28;20090;-66
2022/01/13 10:35:18;;;;;;;135.73;24.80;;;5.90;99.90;;;;;;5055659;28;20554;-66
2022/01/13 10:37:56;;;;;;;129.48;24.17;;;6.00;99.90;;;;;;5053320;28;20044;-66
2022/01/13 10:40:33;;;;;;;147.32;25.85;;;6.00;99.90;;;;;;5063689;28;20039;-66
2022/01/13 10:45:35;;;;;;;125.07;22.73;;;6.00;99.90;;;;;;5059467;28;21344;-66
2022/01/13 10:48:16;;;;;;;124.28;23.88;;;6.10;99.90;;;;;;5060382;28;20531;-66
2022/01/13 10:51:02;;;;;;;123.20;22.88;;;6.10;99.90;;;;;;5061451;28;20508;-66
2022/01/13 10:53:35;;;;;;;147.20;26.13;;;6.10;99.90;;;;;;5056165;28;20075;-67
2022/01/13 10:56:05;;;;;;;123.63;23.63;;;6.10;99.90;;;;;;5053826;28;20029;-67
2022/01/13 10:58:42;;;;;;;113.50;22.55;;;6.10;99.90;;;;;;5061162;28;20052;-67
2022/01/13 11:01:10;;;;;;;105.43;22.77;;;6.10;99.90;;;;;;5061143;28;20043;-67
2022/01/13 11:03:40;;;;;;;101.18;22.25;;;6.20;99.90;;;;;;5053845;28;20119;-67
2022/01/13 11:06:09;;;;;;;97.15;22.02;;;6.20;99.90;;;;;;5061160;28;20504;-67
2022/01/13 11:08:41;;;;;;;97.13;21.52;;;6.20;99.90;;;;;;5060945;28;20288;-67
2022/01/13 11:11:20;;;;;;;116.55;23.58;;;6.20;99.90;;;;;;5056814;28;20033;-67
2022/01/13 11:13:56;;;;;;;108.55;23.65;;;6.20;99.90;;;;;;5050268;28;20052;-66
2022/01/13 11:16:24;;;;;;;107.22;21.45;;;6.20;99.90;;;;;;5055473;28;20032;-66
2022/01/13 11:18:51;;;;;;;117.35;23.05;;;6.20;99.90;;;;;;5056182;28;20044;-66
2022/01/13 11:21:17;;;;;;;95.55;21.02;;;6.20;99.90;;;;;;5058212;28;20512;-66
2022/01/13 11:23:48;;;;;;;83.03;20.23;;;6.20;99.90;;;;;;5055887;28;20052;-66
2022/01/13 11:26:15;;;;;;;90.85;21.40;;;6.20;99.90;;;;;;5059714;28;20106;-67
2022/01/13 11:28:42;;;;;;;93.47;21.52;;;6.20;99.90;;;;;;5059919;28;20051;-67
2022/01/13 11:31:09;;;;;;;87.15;20.52;;;6.30;99.90;;;;;;5060785;28;20512;-67
2022/01/13 11:33:36;;;;;;;94.07;20.00;;;6.20;99.90;;;;;;5059829;28;20123;-67
2022/01/13 11:36:04;;;;;;;89.47;21.95;;;6.20;99.90;;;;;;5061588;28;20040;-67
2022/01/13 11:38:30;;;;;;;101.63;22.85;;;6.20;99.90;;;;;;5063792;28;20120;-67
2022/01/13 11:41:02;;;;;;;102.25;22.30;;;6.20;99.90;;;;;;5066559;28;20489;-67
2022/01/13 11:43:41;;;;;;;124.32;24.92;;;6.30;99.90;;;;;;5057962;28;20098;-67
2022/01/13 11:46:19;;;;;;;164.40;27.35;;;6.20;99.90;;;;;;5062461;28;20059;-67
2022/01/13 11:49:08;;;;;;;125.85;24.70;;;6.20;99.90;;;;;;5060957;28;20051;-67
2022/01/13 11:52:28;;;;;;;99.78;23.52;;;6.30;99.90;;;;;;5058466;28;20083;-67
2022/01/13 11:54:54;;;;;;;105.20;24.35;;;6.20;99.90;;;;;;5058965;28;20044;-67
2022/01/13 11:57:23;;;;;;;101.13;23.27;;;6.30;99.90;;;;;;5058389;28;20036;-67
2022/01/13 12:00:00;;;;;;;104.10;22.58;;;6.30;99.90;;;;;;5058915;28;20071;-67
2022/01/13 12:02:32;;;;;;;132.48;27.05;;;6.30;99.90;;;;;;5058557;28;20066;-67
2022/01/13 12:05:04;;;;;;;116.70;25.23;;;6.20;99.90;;;;;;5066392;28;20066;-67
2022/01/13 12:07:43;;;;;;;120.38;25.05;;;6.20;99.90;;;;;;5064984;28;20535;-67
2022/01/13 12:10:09;;;;;;;114.75;25.33;;;6.20;99.90;;;;;;5049245;28;20102;-67
2022/01/13 12:12:37;;;;;;;124.53;26.17;;;6.20;99.90;;;;;;5064369;28;20120;-67
2022/01/13 12:15:29;;;;;;;118.13;25.95;;;6.20;99.90;;;;;;5060009;28;20040;-67
2022/01/13 12:18:05;;;;;;;97.88;23.48;;;6.30;99.90;;;;;;5058823;28;20091;-67
2022/01/13 12:20:43;;;;;;;123.65;27.55;;;6.30;99.90;;;;;;5056893;28;20489;-66
2022/01/13 12:23:41;;;;;;;102.28;24.67;;;6.20;99.90;;;;;;5057406;28;20114;-66
2022/01/13 12:26:29;;;;;;;115.57;27.73;;;6.30;99.90;;;;;;5078236;28;20037;-66
2022/01/13 12:29:21;;;;;;;112.55;25.95;;;6.30;99.90;;;;;;5061541;28;20033;-66
2022/01/13 12:32:07;;;;;;;113.65;26.20;;;6.30;99.90;;;;;;5059130;28;20140;-66
2022/01/13 12:34:32;;;;;;;158.77;30.90;;;6.20;99.90;;;;;;5058410;28;20037;-67
2022/01/13 12:37:11;;;;;;;130.85;28.52;;;6.20;99.90;;;;;;5060579;28;20036;-67
2022/01/13 12:40:19;;;;;;;117.72;29.25;;;6.30;99.90;;;;;;5059309;28;20396;-67
2022/01/13 12:42:51;;;;;;;115.65;28.30;;;6.30;99.90;;;;;;5060990;28;20404;-67
2022/01/13 12:45:28;;;;;;;134.90;29.08;;;6.30;99.90;;;;;;5059130;28;20076;-67
2022/01/13 12:48:03;;;;;;;128.48;30.02;;;6.30;99.90;;;;;;5053390;28;20431;-67
2022/01/13 12:50:28;;;;;;;;;;;6.30;99.90;;;;;;5059398;28;20025;-67
2022/01/13 12:53:05;;;;;;;120.10;27.40;;;6.30;99.90;;;;;;5062284;28;20394;-67
2022/01/13 12:55:31;;;;;;;111.05;27.95;;;6.30;99.90;;;;;;5062235;28;20075;-67
2022/01/13 12:57:56;;;;;;;108.22;29.08;;;6.30;99.90;;;;;;5059633;28;20040;-67
2022/01/13 13:00:24;;;;;;;116.38;29.58;;;6.30;99.90;;;;;;5060469;28;20433;-67
2022/01/13 13:03:06;;;;;;;112.05;30.02;;;6.30;99.90;;;;;;5064068;28;20127;-67
2022/01/13 13:05:46;;;;;;;97.90;28.58;;;6.30;99.90;;;;;;5055544;28;20400;-67
2022/01/13 13:08:20;;;;;;;121.22;31.52;;;6.40;99.90;;;;;;5053994;28;20126;-67